EDT,Max TemperatureF,Mean TemperatureF,Min TemperatureF,Max Dew PointF,MeanDew PointF,Min DewpointF,Max Humidity, Mean Humidity, Min Humidity, Max Sea Level PressureIn, Mean Sea Level PressureIn, Min Sea Level PressureIn, Max VisibilityMiles, Mean VisibilityMiles, Min VisibilityMiles, Max Wind SpeedMPH, Mean Wind SpeedMPH, Max Gust SpeedMPH,PrecipitationIn, CloudCover, Events, WindDirDegrees
2013-5-1,67,62,56,56,54,52,93,80,67,30.25,30.20,30.15,10,10,9,18,11,25,0.00,6,,45
2013-5-2,60,58,56,57,56,54,100,92,84,30.27,30.23,30.20,10,7,1,15,10,18,0.04,8,Rain,39
2013-5-3,66,61,56,56,54,52,100,86,72,30.20,30.14,30.06,10,8,1,20,10,24,0.08,8,Rain,49
2013-5-4,59,55,50,52,48,41,93,78,62,30.06,30.01,29.94,10,9,4,22,13,30,0.70,8,Rain,47
2013-5-5,54,52,49,53,51,48,100,97,93,29.96,29.87,29.81,10,4,1,24,12,31,3.19,8,Rain,40
2013-5-6,66,58,49,57,51,45,100,76,52,29.90,29.84,29.78,10,7,0,16,7,22,0.00,5,Fog,185
2013-5-7,70,58,45,56,50,44,100,73,45,29.94,29.90,29.86,10,9,2,15,3,24,0.22,5,Rain-Thunderstorm,174
2013-5-8,78,64,49,57,53,48,100,75,49,30.01,29.94,29.90,10,5,1,16,4,22,0.00,3,,256
2013-5-9,82,67,52,62,56,52,93,66,39,30.10,30.04,29.98,10,10,9,14,3,18,T,2,Rain,293
2013-5-10,82,70,57,63,60,56,100,73,45,30.07,30.01,29.94,10,10,3,22,6,29,T,1,Rain,216
2013-5-11,78,70,61,64,60,56,84,71,57,29.95,29.88,29.82,10,10,9,23,10,29,0.12,3,Rain,226
2013-5-12,75,62,49,59,45,33,97,59,21,30.04,29.92,29.85,10,10,10,16,5,21,0.00,1,,335
2013-5-13,70,57,43,39,35,28,76,50,24,30.17,30.11,30.04,10,10,10,13,3,23,0.00,0,,22
2013-5-14,74,58,41,50,42,33,83,58,33,30.25,30.17,30.07,10,10,7,16,6,23,0.00,0,,196
2013-5-15,88,74,59,58,56,50,80,57,34,30.08,30.01,29.93,10,10,10,18,9,24,0.00,0,,224
2013-5-16,82,72,61,61,57,53,81,62,42,30.01,29.98,29.94,10,10,10,15,6,18,T,0,,238
2013-5-17,86,74,61,62,59,55,97,69,40,30.07,30.04,29.99,10,10,8,15,4,21,0.00,1,,221
2013-5-18,73,68,63,67,64,60,100,88,76,30.14,30.09,30.03,10,6,2,10,4,14,0.32,7,Rain,141
2013-5-19,77,71,64,67,65,64,100,85,69,30.12,30.07,30.00,10,6,0,12,4,14,0.14,6,Fog-Rain,183
2013-5-20,84,74,64,67,65,64,100,79,58,30.13,30.06,30.00,10,6,0,9,2,14,0.00,5,Fog,156
2013-5-21,88,77,65,70,66,64,93,70,46,30.05,29.98,29.92,10,8,2,17,4,21,0.00,1,,192
2013-5-22,85,74,62,70,65,61,100,78,55,30.02,29.94,29.84,10,8,1,32,7,47,0.80,5,Rain-Thunderstorm,178
2013-5-23,83,73,62,66,62,57,100,74,47,29.98,29.90,29.81,10,8,2,17,6,23,0.16,6,Rain-Thunderstorm,218
2013-5-24,74,64,54,56,44,31,86,53,20,30.19,30.04,29.89,10,10,10,23,9,33,0.00,0,,333
2013-5-25,77,63,48,50,42,35,71,50,29,30.29,30.21,30.16,10,10,10,14,6,18,0.00,0,,313
2013-5-26,76,66,56,53,46,40,78,57,35,30.28,30.20,30.15,10,10,10,12,4,16,0.00,2,,87
2013-5-27,83,69,54,60,55,52,93,66,39,30.25,30.18,30.13,10,10,10,12,3,16,0.00,1,,179
2013-5-28,83,73,62,63,61,57,93,70,47,30.22,30.17,30.12,10,10,10,13,5,20,0.00,1,,192
2013-5-29,84,73,61,62,60,58,93,68,43,30.23,30.18,30.14,10,10,10,12,4,17,0.00,0,,179
2013-5-30,83,73,62,64,61,59,93,70,47,30.28,30.20,30.14,10,10,10,12,3,21,0.00,2,,180
2013-5-31,86,77,67,66,64,60,93,69,44,30.24,30.16,30.08,10,10,10,14,6,20,0.00,4,,191